createdAt,value
2023-10-19T00:00:49.340Z,75.04
2023-10-19T00:03:19.623Z,75.39
2023-10-19T00:05:47.452Z,75.68
2023-10-19T00:08:14.246Z,75.49
2023-10-19T00:10:43.771Z,75.57
2023-10-19T00:13:14.535Z,75.47
2023-10-19T00:15:49.069Z,75.71
2023-10-19T00:18:16.280Z,75.92
2023-10-19T00:20:46.704Z,76.11
2023-10-19T00:23:14.496Z,76.26
2023-10-19T00:25:45.055Z,76.26
2023-10-19T00:28:15.886Z,76.21
2023-10-19T00:30:43.102Z,76.27
2023-10-19T00:33:21.648Z,76.58
2023-10-19T00:36:00.349Z,76.66
2023-10-19T00:38:28.315Z,76.87
2023-10-19T00:40:59.663Z,76.58
2023-10-19T00:43:29.498Z,76.80
2023-10-19T00:45:58.979Z,76.94
2023-10-19T00:48:26.657Z,77.00
2023-10-19T00:51:03.963Z,76.99
2023-10-19T00:53:30.658Z,76.86
2023-10-19T00:56:01.567Z,76.81
2023-10-19T00:58:30.995Z,76.69
2023-10-19T01:01:00.361Z,76.86
2023-10-19T01:03:32.897Z,76.59
2023-10-19T01:06:01.447Z,76.40
2023-10-19T01:08:36.536Z,76.04
2023-10-19T01:11:15.716Z,76.43
2023-10-19T01:13:45.292Z,76.36
2023-10-19T01:16:21.451Z,76.32
2023-10-19T01:18:54.149Z,76.30
2023-10-19T01:21:28.062Z,76.41
2023-10-19T01:23:55.752Z,76.54
2023-10-19T01:26:22.876Z,76.93
2023-10-19T01:28:52.321Z,76.82
2023-10-19T01:31:23.406Z,76.78
2023-10-19T01:33:50.981Z,76.95
2023-10-19T01:36:26.877Z,76.77
2023-10-19T01:39:01.138Z,77.25
2023-10-19T01:41:28.383Z,77.26
2023-10-19T01:43:55.210Z,77.35
2023-10-19T01:46:25.825Z,77.25
2023-10-19T01:48:57.041Z,77.40
2023-10-19T01:51:25.395Z,77.55
2023-10-19T01:53:51.844Z,77.65
2023-10-19T01:56:18.576Z,77.70
2023-10-19T01:58:49.150Z,77.55
2023-10-19T02:01:29.003Z,77.58
2023-10-19T02:04:00.011Z,77.50
2023-10-19T02:06:29.345Z,77.77
2023-10-19T02:09:01.323Z,77.36
2023-10-19T02:11:29.129Z,77.52
2023-10-19T02:14:00.304Z,77.32
2023-10-19T02:16:30.049Z,77.11
2023-10-19T02:18:57.130Z,77.08
2023-10-19T02:21:27.543Z,77.07
2023-10-19T02:23:54.160Z,76.85
2023-10-19T02:26:30.042Z,76.38
2023-10-19T02:28:56.812Z,76.26
2023-10-19T02:31:24.055Z,76.12
2023-10-19T02:34:03.448Z,76.36
2023-10-19T02:36:31.344Z,76.19
2023-10-19T02:39:12.245Z,75.93
2023-10-19T02:41:40.418Z,76.09
2023-10-19T02:44:23.413Z,76.23
2023-10-19T02:47:01.656Z,76.29
2023-10-19T02:49:36.551Z,76.43
2023-10-19T02:52:06.217Z,76.13
2023-10-19T02:54:36.131Z,76.36
2023-10-19T02:57:07.122Z,76.50
2023-10-19T02:59:33.715Z,76.91
2023-10-19T03:02:12.892Z,76.74
2023-10-19T03:04:42.335Z,76.64
2023-10-19T03:07:10.437Z,76.80
2023-10-19T03:09:36.939Z,76.61
2023-10-19T03:12:04.812Z,77.08
2023-10-19T03:14:33.059Z,77.18
2023-10-19T03:17:00.903Z,77.05
2023-10-19T03:19:28.916Z,77.26
2023-10-19T03:21:55.785Z,77.48
2023-10-19T03:24:42.382Z,77.76
2023-10-19T03:27:17.408Z,77.98
2023-10-19T03:30:01.129Z,77.95
2023-10-19T03:32:28.175Z,78.42
2023-10-19T03:34:56.634Z,78.47
2023-10-19T03:37:29.716Z,78.68
2023-10-19T03:39:59.067Z,78.83
2023-10-19T03:42:40.578Z,79.04
2023-10-19T03:45:14.486Z,79.42
2023-10-19T03:47:45.570Z,79.71
2023-10-19T03:50:16.099Z,79.53
2023-10-19T03:52:42.958Z,79.97
2023-10-19T03:55:15.921Z,80.12
2023-10-19T03:57:47.049Z,80.27
2023-10-19T04:00:17.233Z,80.53
2023-10-19T04:02:44.214Z,80.51
2023-10-19T04:05:21.039Z,80.88
2023-10-19T04:07:50.499Z,81.25
2023-10-19T04:10:35.182Z,81.25
2023-10-19T04:13:02.262Z,81.33
2023-10-19T04:15:36.105Z,81.71
2023-10-19T04:18:10.155Z,82.01
2023-10-19T04:20:53.604Z,81.93
2023-10-19T04:23:21.736Z,82.32
2023-10-19T04:25:48.638Z,82.16
2023-10-19T04:28:15.653Z,82.30
2023-10-19T04:30:42.407Z,82.45
2023-10-19T04:33:11.692Z,82.39
2023-10-19T04:35:38.482Z,82.53
2023-10-19T04:38:06.983Z,82.71
2023-10-19T04:40:34.511Z,82.61
2023-10-19T04:43:03.663Z,82.45
2023-10-19T04:45:30.437Z,82.63
2023-10-19T04:47:56.972Z,82.64
2023-10-19T04:50:23.580Z,82.82
2023-10-19T04:52:50.131Z,82.76
2023-10-19T04:55:17.255Z,83.07
2023-10-19T04:57:43.913Z,83.13
2023-10-19T05:00:15.052Z,82.67
2023-10-19T05:02:42.649Z,82.71
2023-10-19T05:05:09.816Z,82.71
2023-10-19T05:07:36.498Z,83.10
2023-10-19T05:10:05.856Z,82.83
2023-10-19T05:12:32.879Z,82.55
2023-10-19T05:14:59.437Z,82.42
2023-10-19T05:17:27.845Z,82.50
2023-10-19T05:19:54.797Z,82.15
2023-10-19T05:22:22.253Z,81.94
2023-10-19T05:24:48.979Z,81.77
2023-10-19T05:27:17.272Z,81.52
2023-10-19T05:29:44.322Z,81.19
2023-10-19T05:32:11.067Z,80.78
2023-10-19T05:34:37.918Z,80.75
2023-10-19T05:37:06.102Z,80.45
2023-10-19T05:39:34.175Z,80.34
2023-10-19T05:42:04.880Z,79.70
2023-10-19T05:44:31.682Z,79.33
2023-10-19T05:47:02.782Z,79.05
2023-10-19T05:49:32.979Z,78.71
2023-10-19T05:51:59.654Z,78.80
2023-10-19T05:54:27.674Z,78.57
2023-10-19T05:56:54.432Z,78.04
2023-10-19T05:59:21.401Z,77.95
2023-10-19T06:01:48.665Z,77.40
2023-10-19T06:04:15.933Z,77.52
2023-10-19T06:06:44.177Z,77.21
2023-10-19T06:09:10.715Z,76.90
2023-10-19T06:11:38.974Z,76.55
2023-10-19T06:14:08.112Z,76.83
2023-10-19T06:16:35.034Z,76.76
2023-10-19T06:19:01.917Z,76.36
2023-10-19T06:21:28.950Z,76.29
2023-10-19T06:23:55.936Z,76.55
2023-10-19T06:26:22.600Z,76.46
2023-10-19T06:28:51.523Z,76.29
2023-10-19T06:31:18.294Z,76.09
2023-10-19T06:33:44.916Z,76.20
2023-10-19T06:36:11.496Z,75.87
2023-10-19T06:38:38.023Z,76.24
2023-10-19T06:41:14.597Z,75.90
2023-10-19T06:43:41.517Z,75.63
2023-10-19T06:46:11.925Z,75.27
2023-10-19T06:48:39.482Z,75.06
2023-10-19T06:51:06.631Z,74.94
2023-10-19T06:53:33.589Z,74.60
2023-10-19T06:56:01.254Z,74.24
2023-10-19T06:58:28.132Z,74.21
2023-10-19T07:00:57.568Z,74.06
2023-10-19T07:03:24.643Z,73.95
2023-10-19T07:05:52.725Z,73.58
2023-10-19T07:08:21.613Z,73.22
2023-10-19T07:10:50.358Z,72.94
2023-10-19T07:13:16.996Z,72.05
2023-10-19T07:15:46.430Z,71.83
2023-10-19T07:18:14.545Z,71.62
2023-10-19T07:20:43.255Z,71.60
2023-10-19T07:23:19.670Z,71.28
2023-10-19T07:25:48.614Z,71.20
2023-10-19T07:28:16.638Z,70.65
2023-10-19T07:30:44.327Z,70.06
2023-10-19T07:33:11.799Z,69.62
2023-10-19T07:35:39.621Z,69.33
2023-10-19T07:38:08.217Z,68.96
2023-10-19T07:40:35.967Z,68.70
2023-10-19T07:43:04.364Z,68.41
2023-10-19T08:37:15.846Z,59.11
2023-10-19T08:39:44.126Z,58.44
2023-10-19T08:42:11.071Z,58.32
2023-10-19T08:44:39.420Z,58.14
2023-10-19T08:47:06.376Z,57.64
2023-10-19T08:49:33.506Z,57.21
2023-10-19T08:52:00.552Z,56.65
2023-10-19T08:54:28.190Z,55.92
2023-10-19T08:56:56.269Z,55.60
2023-10-19T08:59:23.941Z,55.03
2023-10-19T09:01:51.054Z,53.87
2023-10-19T09:04:17.983Z,53.16
2023-10-19T09:06:46.086Z,52.73
2023-10-19T09:09:21.928Z,52.13
2023-10-19T09:11:48.887Z,52.23
2023-10-19T09:14:18.594Z,51.60
2023-10-19T09:16:58.309Z,50.49
2023-10-19T09:19:48.283Z,49.54
2023-10-19T09:22:23.270Z,48.80
2023-10-19T09:24:50.594Z,47.97
2023-10-19T09:27:18.007Z,47.31
2023-10-19T09:29:45.735Z,47.03
2023-10-19T09:32:14.170Z,46.97
2023-10-19T09:34:44.243Z,47.01
2023-10-19T09:37:11.931Z,46.42
2023-10-19T09:39:38.744Z,46.23
2023-10-19T09:42:11.807Z,46.06
2023-10-19T09:44:41.821Z,46.42
2023-10-19T09:47:20.084Z,46.38
2023-10-19T09:49:50.675Z,46.46
2023-10-19T09:58:15.110Z,45.56
2023-10-19T10:00:50.873Z,45.49
2023-10-19T10:03:43.863Z,46.11
2023-10-19T10:06:12.732Z,45.53
2023-10-19T10:08:40.068Z,45.06
2023-10-19T10:11:17.482Z,44.85
2023-10-19T10:13:45.908Z,44.42
2023-10-19T10:16:15.814Z,44.46
2023-10-19T10:18:44.933Z,43.57
2023-10-19T10:21:13.187Z,43.52
2023-10-19T10:23:44.867Z,43.27
2023-10-19T10:26:15.289Z,43.09
2023-10-19T10:28:42.628Z,43.06
2023-10-19T10:31:21.280Z,43.38
2023-10-19T10:33:50.522Z,43.04
2023-10-19T10:36:20.218Z,43.33
2023-10-19T10:38:51.374Z,42.60
2023-10-19T10:41:22.633Z,41.98
2023-10-19T10:43:54.294Z,41.69
2023-10-19T10:46:22.506Z,41.32
2023-10-19T10:48:49.665Z,41.23
2023-10-19T10:51:29.382Z,41.57
2023-10-19T10:53:57.128Z,41.80
2023-10-19T10:56:24.423Z,41.84
2023-10-19T10:58:51.668Z,42.04
2023-10-19T11:01:33.413Z,42.33
2023-10-19T11:04:08.360Z,41.98
2023-10-19T11:06:49.763Z,41.68
2023-10-19T11:09:20.287Z,41.88
2023-10-19T11:11:47.212Z,41.75
2023-10-19T11:14:14.218Z,41.80
2023-10-19T11:16:41.308Z,42.13
2023-10-19T11:19:10.001Z,42.13
2023-10-19T11:21:36.739Z,41.98
2023-10-19T11:24:03.820Z,42.06
2023-10-19T11:26:30.905Z,42.31
2023-10-19T11:29:04.793Z,42.16
2023-10-19T11:31:38.379Z,42.30
2023-10-19T11:34:05.446Z,42.63
2023-10-19T11:36:35.028Z,42.81
2023-10-19T11:39:04.999Z,42.86
2023-10-19T11:41:32.051Z,42.89
2023-10-19T11:43:59.173Z,43.13
2023-10-19T11:46:26.039Z,43.39
2023-10-19T11:48:53.062Z,43.05
2023-10-19T11:51:19.863Z,43.01
2023-10-19T11:53:46.571Z,43.28
2023-10-19T11:56:30.532Z,43.32
2023-10-19T11:58:57.378Z,44.09
2023-10-19T12:01:25.783Z,44.30
2023-10-19T12:03:52.612Z,44.23
2023-10-19T12:06:19.684Z,44.48
2023-10-19T12:08:46.633Z,44.68
2023-10-19T12:11:17.227Z,44.91
2023-10-19T12:13:44.108Z,45.19
2023-10-19T12:16:16.280Z,44.83
2023-10-19T12:18:44.099Z,44.51
2023-10-19T12:21:18.430Z,44.42
2023-10-19T12:23:45.254Z,44.60
2023-10-19T12:26:12.207Z,44.41
2023-10-19T12:28:40.057Z,44.83
2023-10-19T12:31:09.486Z,45.20
2023-10-19T12:33:37.229Z,45.83
2023-10-19T12:36:22.853Z,46.24
2023-10-19T12:38:50.345Z,46.55
2023-10-19T12:41:17.911Z,46.63
2023-10-19T12:43:44.496Z,46.41
2023-10-19T12:46:13.295Z,46.04
2023-10-19T12:48:43.521Z,45.85
2023-10-19T12:51:12.061Z,45.97
2023-10-19T12:53:41.960Z,45.97
2023-10-19T12:56:10.811Z,46.08
2023-10-19T12:58:38.642Z,46.40
2023-10-19T13:01:17.912Z,46.32
2023-10-19T13:03:49.922Z,46.27
2023-10-19T13:06:17.455Z,46.22
2023-10-19T13:08:44.302Z,46.25
2023-10-19T13:11:18.036Z,46.10
2023-10-19T13:13:47.012Z,45.94
2023-10-19T13:16:15.563Z,46.16
2023-10-19T13:18:42.427Z,46.30
2023-10-19T13:21:17.291Z,46.63
2023-10-19T13:23:44.811Z,46.81
2023-10-19T13:26:18.063Z,47.04
2023-10-19T13:28:45.385Z,47.35
2023-10-19T13:31:14.496Z,47.75
2023-10-19T13:33:42.488Z,47.94
2023-10-19T13:36:09.497Z,48.37
2023-10-19T13:38:36.178Z,48.52
2023-10-19T13:41:10.545Z,48.51
2023-10-19T13:43:40.765Z,48.79
2023-10-19T13:46:07.705Z,49.21
2023-10-19T13:48:34.640Z,49.64
2023-10-19T13:51:01.357Z,50.07
2023-10-19T13:53:28.184Z,50.51
2023-10-19T13:55:55.699Z,50.71
2023-10-19T13:58:23.837Z,51.05
2023-10-19T14:00:50.597Z,51.29
2023-10-19T14:03:17.494Z,51.47
2023-10-19T14:05:48.833Z,51.77
2023-10-19T14:08:17.073Z,51.98
2023-10-19T14:10:44.043Z,52.20
2023-10-19T14:13:11.978Z,52.49
2023-10-19T14:15:39.280Z,52.44
2023-10-19T14:18:06.220Z,52.80
2023-10-19T14:20:34.565Z,53.01
2023-10-19T14:23:03.138Z,53.11
2023-10-19T14:25:30.011Z,53.17
2023-10-19T14:27:59.926Z,53.35
2023-10-19T14:30:28.927Z,53.49
2023-10-19T14:32:55.726Z,54.13
2023-10-19T14:35:23.717Z,54.22
2023-10-19T14:37:55.133Z,54.64
2023-10-19T14:40:26.500Z,54.82
2023-10-19T14:42:56.202Z,54.91
2023-10-19T14:45:32.916Z,55.27
2023-10-19T14:48:03.183Z,55.58
2023-10-19T14:50:30.848Z,55.87
2023-10-19T14:52:57.748Z,56.05
2023-10-19T14:55:25.035Z,56.29
2023-10-19T14:57:54.044Z,56.46
2023-10-19T15:00:26.737Z,56.76
2023-10-19T15:03:00.912Z,56.69
2023-10-19T15:05:28.932Z,56.91
2023-10-19T15:07:58.792Z,57.23
2023-10-19T15:10:26.736Z,57.50
2023-10-19T15:12:54.083Z,57.40
2023-10-19T15:15:21.510Z,57.72
2023-10-19T15:17:48.460Z,58.22
2023-10-19T15:20:15.772Z,57.87
2023-10-19T15:22:44.150Z,58.63
2023-10-19T15:25:12.763Z,58.45
2023-10-19T15:27:40.749Z,58.69
2023-10-19T15:30:08.435Z,58.48
2023-10-19T15:32:39.007Z,58.67
2023-10-19T15:35:06.076Z,59.04
2023-10-19T15:37:33.053Z,58.71
2023-10-19T15:39:59.902Z,59.17
2023-10-19T15:42:26.645Z,59.40
2023-10-19T15:44:53.321Z,59.30
2023-10-19T15:47:20.238Z,59.37
2023-10-19T15:49:52.622Z,59.26
2023-10-19T15:52:23.146Z,59.39
2023-10-19T15:54:51.049Z,59.46
2023-10-19T15:57:20.219Z,59.63
2023-10-19T15:59:47.217Z,59.63
2023-10-19T16:02:14.832Z,59.49
2023-10-19T16:04:42.481Z,59.67
2023-10-19T16:07:10.812Z,59.80
2023-10-19T16:09:38.190Z,60.25
2023-10-19T16:12:05.623Z,60.18
2023-10-19T16:14:32.695Z,60.34
2023-10-19T16:16:59.681Z,60.26
2023-10-19T16:19:26.595Z,60.41
2023-10-19T16:21:53.302Z,60.73
2023-10-19T16:24:19.963Z,60.63
2023-10-19T16:26:46.988Z,60.80
2023-10-19T16:29:17.086Z,60.77
2023-10-19T16:31:45.070Z,60.98
2023-10-19T16:34:13.023Z,61.31
2023-10-19T16:36:40.318Z,61.31
2023-10-19T16:39:13.513Z,61.24
2023-10-19T16:41:40.369Z,61.48
2023-10-19T16:44:07.720Z,61.66
2023-10-19T16:46:34.613Z,61.81
2023-10-19T16:49:01.355Z,61.63
2023-10-19T16:51:29.018Z,61.81
2023-10-19T16:53:57.385Z,62.07
2023-10-19T16:56:24.231Z,61.98
2023-10-19T16:58:50.974Z,62.19
2023-10-19T17:01:17.871Z,62.55
2023-10-19T17:03:45.442Z,62.53
2023-10-19T17:06:12.719Z,62.68
2023-10-19T17:08:40.490Z,62.45
2023-10-19T17:11:08.481Z,62.47
2023-10-19T17:13:36.352Z,62.73
2023-10-19T17:16:03.503Z,62.44
2023-10-19T17:18:30.536Z,62.39
2023-10-19T17:20:57.351Z,62.27
2023-10-19T17:23:24.350Z,62.24
2023-10-19T17:25:51.592Z,62.28
2023-10-19T17:28:18.455Z,62.22
2023-10-19T17:30:46.500Z,62.18
2023-10-19T17:33:13.761Z,61.93
2023-10-19T17:35:40.705Z,62.07
2023-10-19T17:38:09.033Z,62.15
2023-10-19T17:40:35.934Z,62.34
2023-10-19T17:43:02.844Z,62.15
2023-10-19T17:45:30.994Z,62.31
2023-10-19T17:47:57.953Z,62.07
2023-10-19T17:50:25.996Z,62.23
2023-10-19T17:52:52.988Z,62.51
2023-10-19T17:55:20.967Z,62.60
2023-10-19T17:57:50.991Z,62.55
2023-10-19T18:00:21.077Z,62.53
2023-10-19T18:02:48.471Z,62.45
2023-10-19T18:05:17.142Z,62.52
2023-10-19T18:07:44.624Z,62.67
2023-10-19T18:10:14.468Z,62.85
2023-10-19T18:12:41.346Z,62.88
2023-10-19T18:15:09.199Z,63.18
2023-10-19T18:17:36.272Z,63.00
2023-10-19T18:20:08.355Z,63.02
2023-10-19T18:22:36.614Z,63.11
2023-10-19T18:25:03.804Z,63.17
2023-10-19T18:27:30.847Z,63.18
2023-10-19T18:29:57.659Z,63.11
2023-10-19T18:32:24.502Z,63.33
2023-10-19T18:34:51.554Z,62.88
2023-10-19T18:37:18.293Z,63.05
2023-10-19T18:39:45.125Z,63.02
2023-10-19T18:42:12.063Z,62.85
2023-10-19T18:44:39.214Z,62.75
2023-10-19T18:47:06.345Z,62.98
2023-10-19T18:49:35.177Z,62.90
2023-10-19T18:52:07.655Z,62.94
2023-10-19T18:54:34.407Z,62.84
2023-10-19T18:57:01.226Z,62.84
2023-10-19T18:59:27.960Z,62.66
2023-10-19T19:01:54.894Z,62.61
2023-10-19T19:04:22.735Z,62.56
2023-10-19T19:06:49.582Z,62.72
2023-10-19T19:09:18.208Z,62.75
2023-10-19T19:11:46.570Z,62.64
2023-10-19T19:14:13.363Z,62.74
2023-10-19T19:16:40.917Z,62.97
2023-10-19T19:19:08.183Z,63.25
2023-10-19T19:21:35.726Z,63.00
2023-10-19T19:24:02.698Z,63.06
2023-10-19T19:26:29.620Z,62.89
2023-10-19T19:28:57.213Z,62.97
2023-10-19T19:31:24.495Z,63.14
2023-10-19T19:33:51.659Z,63.18
2023-10-19T19:36:18.522Z,63.48
2023-10-19T19:38:46.147Z,63.38
2023-10-19T19:41:13.627Z,63.30
2023-10-19T19:43:40.554Z,63.23
2023-10-19T19:46:07.666Z,63.20
2023-10-19T19:48:34.407Z,63.68
2023-10-19T19:51:01.265Z,63.41
2023-10-19T19:53:27.883Z,64.43
2023-10-19T19:55:54.445Z,65.09
2023-10-19T19:58:21.181Z,65.66
2023-10-19T20:00:47.725Z,65.29
2023-10-19T20:03:14.640Z,65.75
2023-10-19T20:05:42.637Z,66.27
2023-10-19T20:08:12.089Z,66.35
2023-10-19T20:10:43.397Z,66.41
2023-10-19T20:13:10.703Z,66.56
2023-10-19T20:15:39.428Z,67.06
2023-10-19T20:18:06.120Z,67.81
2023-10-19T20:20:33.905Z,68.36
2023-10-19T20:23:00.917Z,68.84
2023-10-19T20:25:28.411Z,69.28
2023-10-19T20:27:56.196Z,69.74
2023-10-19T20:30:23.554Z,70.12
2023-10-19T20:32:50.578Z,70.77
2023-10-19T20:35:18.319Z,71.46
2023-10-19T20:37:44.919Z,71.97
2023-10-19T20:40:20.060Z,72.50
2023-10-19T20:42:52.336Z,72.87
2023-10-19T20:45:19.180Z,74.09
2023-10-19T20:47:56.672Z,74.38
2023-10-19T20:50:24.242Z,74.82
2023-10-19T20:52:53.028Z,75.12
2023-10-19T20:55:20.007Z,75.86
2023-10-19T20:57:49.810Z,76.53
2023-10-19T21:00:16.981Z,77.20
2023-10-19T21:02:46.611Z,77.64
2023-10-19T21:05:19.118Z,78.15
2023-10-19T21:07:49.378Z,78.22
2023-10-19T21:10:19.127Z,78.53
2023-10-19T21:12:45.808Z,78.99
2023-10-19T21:15:13.268Z,79.29
2023-10-19T21:17:51.042Z,79.84
2023-10-19T21:20:18.683Z,79.84
2023-10-19T21:22:49.657Z,79.88
2023-10-19T21:25:17.836Z,80.07
2023-10-19T21:27:45.097Z,80.77
2023-10-19T21:30:13.601Z,80.93
2023-10-19T21:32:42.723Z,80.70
2023-10-19T21:35:10.180Z,80.78
2023-10-19T21:37:37.153Z,80.87
2023-10-19T21:40:06.380Z,81.11
2023-10-19T21:42:33.083Z,81.35
2023-10-19T21:44:59.825Z,81.14
2023-10-19T21:47:26.549Z,81.24
2023-10-19T21:49:53.829Z,81.61
2023-10-19T21:52:24.244Z,82.08
2023-10-19T21:54:51.406Z,82.03
2023-10-19T21:57:18.329Z,81.90
2023-10-19T21:59:45.471Z,81.65
2023-10-19T22:02:12.126Z,81.89
2023-10-19T22:04:38.898Z,82.21
2023-10-19T22:07:05.922Z,82.82
2023-10-19T22:12:18.049Z,83.16
2023-10-19T22:14:46.680Z,83.17
2023-10-19T22:17:16.632Z,83.52
2023-10-19T22:19:44.531Z,83.10
2023-10-19T22:22:13.176Z,82.67
2023-10-19T22:24:40.533Z,82.97
2023-10-19T22:27:08.225Z,83.07
2023-10-19T22:29:35.671Z,83.26
2023-10-19T22:32:08.541Z,83.25
2023-10-19T22:34:36.074Z,82.79
2023-10-19T22:37:04.433Z,83.19
2023-10-19T22:39:31.889Z,83.07
2023-10-19T22:41:59.309Z,83.18
2023-10-19T22:44:26.726Z,83.24
2023-10-19T22:46:54.287Z,83.18
2023-10-19T22:49:23.565Z,83.13
2023-10-19T22:51:50.929Z,83.25
2023-10-19T22:54:18.343Z,83.21
2023-10-19T22:56:45.786Z,83.07
2023-10-19T22:59:13.205Z,83.04
2023-10-19T23:01:41.311Z,83.19
2023-10-19T23:04:08.819Z,83.46
2023-10-19T23:06:36.419Z,83.62
2023-10-19T23:09:05.189Z,83.50
2023-10-19T23:11:32.800Z,83.58
2023-10-19T23:14:04.916Z,83.68
2023-10-19T23:16:37.430Z,83.79
2023-10-19T23:19:04.927Z,83.79
2023-10-19T23:21:34.303Z,83.98
2023-10-19T23:24:01.901Z,84.15
2023-10-19T23:26:30.773Z,84.09
2023-10-19T23:29:04.696Z,84.43
2023-10-19T23:31:34.856Z,84.54
2023-10-19T23:34:04.914Z,84.37
2023-10-19T23:36:32.539Z,84.07
2023-10-19T23:39:04.628Z,84.28
2023-10-19T23:41:32.150Z,84.66
2023-10-19T23:43:59.729Z,84.79
2023-10-19T23:46:27.650Z,84.87
2023-10-19T23:48:55.032Z,84.95
2023-10-19T23:51:22.701Z,85.07
2023-10-19T23:53:52.062Z,84.98
2023-10-19T23:56:20.199Z,84.74
2023-10-19T23:58:47.564Z,84.57
